sensor_id;sensor_type;location;lat;lon;timestamp;temperature;humidity
11256;HTU21D;5685;52.384;13.420;2022-10-16T00:00:34;21.00;99.90
11256;HTU21D;5685;52.384;13.420;2022-10-16T00:03:37;21.00;99.90
11256;HTU21D;5685;52.384;13.420;2022-10-16T00:06:40;21.00;99.90
11256;HTU21D;5685;52.384;13.420;2022-10-16T00:09:43;21.00;99.90
11256;HTU21D;5685;52.384;13.420;2022-10-16T00:12:46;21.00;99.90
11256;HTU21D;5685;52.384;13.420;2022-10-16T00:15:48;21.00;99.90
11256;HTU21D;5685;52.384;13.420;2022-10-16T00:18:50;21.00;99.90
11256;HTU21D;5685;52.384;13.420;2022-10-16T00:21:52;21.00;99.90
11256;HTU21D;5685;52.384;13.420;2022-10-16T00:24:56;21.00;99.90
11256;HTU21D;5685;52.384;13.420;2022-10-16T00:27:58;21.00;99.90
11256;HTU21D;5685;52.384;13.420;2022-10-16T00:31:03;21.00;99.90
11256;HTU21D;5685;52.384;13.420;2022-10-16T00:34:06;21.00;99.90
11256;HTU21D;5685;52.384;13.420;2022-10-16T00:37:08;21.00;99.90
11256;HTU21D;5685;52.384;13.420;2022-10-16T00:40:12;21.00;99.90
11256;HTU21D;5685;52.384;13.420;2022-10-16T00:43:32;21.00;99.90
11256;HTU21D;5685;52.384;13.420;2022-10-16T00:46:38;21.00;99.90
11256;HTU21D;5685;52.384;13.420;2022-10-16T00:49:43;21.00;99.90
11256;HTU21D;5685;52.384;13.420;2022-10-16T00:52:47;21.00;99.90
11256;HTU21D;5685;52.384;13.420;2022-10-16T00:55:52;21.00;99.90
11256;HTU21D;5685;52.384;13.420;2022-10-16T00:58:54;21.00;99.90
11256;HTU21D;5685;52.384;13.420;2022-10-16T01:01:57;21.00;99.90
11256;HTU21D;5685;52.384;13.420;2022-10-16T01:05:00;21.00;99.90
11256;HTU21D;5685;52.384;13.420;2022-10-16T01:08:08;21.00;99.90
11256;HTU21D;5685;52.384;13.420;2022-10-16T01:11:19;21.00;99.90
11256;HTU21D;5685;52.384;13.420;2022-10-16T01:14:31;21.00;99.90
11256;HTU21D;5685;52.384;13.420;2022-10-16T01:17:43;21.00;99.90
11256;HTU21D;5685;52.384;13.420;2022-10-16T01:20:51;21.00;99.90
11256;HTU21D;5685;52.384;13.420;2022-10-16T01:24:03;21.00;99.90
11256;HTU21D;5685;52.384;13.420;2022-10-16T01:27:12;21.00;99.90
11256;HTU21D;5685;52.384;13.420;2022-10-16T01:30:18;21.00;99.90
11256;HTU21D;5685;52.384;13.420;2022-10-16T01:33:27;21.00;99.90
11256;HTU21D;5685;52.384;13.420;2022-10-16T01:36:38;21.00;99.90
11256;HTU21D;5685;52.384;13.420;2022-10-16T01:39:45;21.00;99.90
11256;HTU21D;5685;52.384;13.420;2022-10-16T01:42:53;21.00;99.90
11256;HTU21D;5685;52.384;13.420;2022-10-16T01:45:59;21.00;99.90
11256;HTU21D;5685;52.384;13.420;2022-10-16T01:49:03;21.00;99.90
11256;HTU21D;5685;52.384;13.420;2022-10-16T01:52:09;21.00;99.90
11256;HTU21D;5685;52.384;13.420;2022-10-16T01:55:16;21.00;99.90
11256;HTU21D;5685;52.384;13.420;2022-10-16T01:58:22;21.00;99.90
11256;HTU21D;5685;52.384;13.420;2022-10-16T02:01:27;21.00;99.90
11256;HTU21D;5685;52.384;13.420;2022-10-16T02:04:34;21.00;99.90
11256;HTU21D;5685;52.384;13.420;2022-10-16T02:07:38;21.00;99.90
11256;HTU21D;5685;52.384;13.420;2022-10-16T02:10:42;21.00;99.90
11256;HTU21D;5685;52.384;13.420;2022-10-16T02:13:48;21.00;99.90
11256;HTU21D;5685;52.384;13.420;2022-10-16T02:16:54;21.00;99.90
11256;HTU21D;5685;52.384;13.420;2022-10-16T02:19:57;21.00;99.90
11256;HTU21D;5685;52.384;13.420;2022-10-16T02:23:01;21.00;99.90
11256;HTU21D;5685;52.384;13.420;2022-10-16T02:26:07;21.00;99.90
11256;HTU21D;5685;52.384;13.420;2022-10-16T02:29:15;21.00;99.90
11256;HTU21D;5685;52.384;13.420;2022-10-16T02:32:23;21.00;99.90
11256;HTU21D;5685;52.384;13.420;2022-10-16T02:35:26;21.00;99.90
11256;HTU21D;5685;52.384;13.420;2022-10-16T02:38:30;21.00;99.90
11256;HTU21D;5685;52.384;13.420;2022-10-16T02:41:32;21.00;99.90
11256;HTU21D;5685;52.384;13.420;2022-10-16T02:44:36;21.00;99.90
11256;HTU21D;5685;52.384;13.420;2022-10-16T02:47:38;21.00;99.90
11256;HTU21D;5685;52.384;13.420;2022-10-16T02:50:41;21.00;99.90
11256;HTU21D;5685;52.384;13.420;2022-10-16T02:53:43;21.00;99.90
11256;HTU21D;5685;52.384;13.420;2022-10-16T02:56:45;21.00;99.90
11256;HTU21D;5685;52.384;13.420;2022-10-16T02:59:49;21.00;99.90
11256;HTU21D;5685;52.384;13.420;2022-10-16T03:02:51;21.00;99.90
11256;HTU21D;5685;52.384;13.420;2022-10-16T03:05:54;21.00;99.90
11256;HTU21D;5685;52.384;13.420;2022-10-16T03:08:56;21.00;99.90
11256;HTU21D;5685;52.384;13.420;2022-10-16T03:11:58;21.00;99.90
11256;HTU21D;5685;52.384;13.420;2022-10-16T03:15:02;21.00;99.90
11256;HTU21D;5685;52.384;13.420;2022-10-16T03:18:05;21.00;99.90
11256;HTU21D;5685;52.384;13.420;2022-10-16T03:21:07;21.00;99.90
11256;HTU21D;5685;52.384;13.420;2022-10-16T03:24:09;21.00;99.90
11256;HTU21D;5685;52.384;13.420;2022-10-16T03:27:11;21.00;99.90
11256;HTU21D;5685;52.384;13.420;2022-10-16T03:30:15;21.00;99.90
11256;HTU21D;5685;52.384;13.420;2022-10-16T03:33:17;21.00;99.90
11256;HTU21D;5685;52.384;13.420;2022-10-16T03:36:20;21.00;99.90
11256;HTU21D;5685;52.384;13.420;2022-10-16T03:39:22;21.00;99.90
11256;HTU21D;5685;52.384;13.420;2022-10-16T03:42:24;21.00;99.90
11256;HTU21D;5685;52.384;13.420;2022-10-16T03:45:28;20.90;99.90
11256;HTU21D;5685;52.384;13.420;2022-10-16T03:48:30;21.00;99.90
11256;HTU21D;5685;52.384;13.420;2022-10-16T03:51:32;21.00;99.90
11256;HTU21D;5685;52.384;13.420;2022-10-16T03:54:35;20.90;99.90
11256;HTU21D;5685;52.384;13.420;2022-10-16T03:57:37;21.00;99.90
11256;HTU21D;5685;52.384;13.420;2022-10-16T04:00:41;21.00;99.90
11256;HTU21D;5685;52.384;13.420;2022-10-16T04:03:44;20.90;99.90
11256;HTU21D;5685;52.384;13.420;2022-10-16T04:06:46;21.00;99.90
11256;HTU21D;5685;52.384;13.420;2022-10-16T04:09:48;20.90;99.90
11256;HTU21D;5685;52.384;13.420;2022-10-16T04:12:52;20.90;99.90
11256;HTU21D;5685;52.384;13.420;2022-10-16T04:15:57;20.90;99.90
11256;HTU21D;5685;52.384;13.420;2022-10-16T04:18:59;20.90;99.90
11256;HTU21D;5685;52.384;13.420;2022-10-16T04:22:02;20.90;99.90
11256;HTU21D;5685;52.384;13.420;2022-10-16T04:25:04;20.90;99.90
11256;HTU21D;5685;52.384;13.420;2022-10-16T04:28:07;20.90;99.90
11256;HTU21D;5685;52.384;13.420;2022-10-16T04:31:10;20.90;99.90
11256;HTU21D;5685;52.384;13.420;2022-10-16T04:34:13;20.90;99.90
11256;HTU21D;5685;52.384;13.420;2022-10-16T04:37:15;20.90;99.90
11256;HTU21D;5685;52.384;13.420;2022-10-16T04:40:17;20.90;99.90
11256;HTU21D;5685;52.384;13.420;2022-10-16T04:43:20;20.90;99.90
11256;HTU21D;5685;52.384;13.420;2022-10-16T04:46:24;20.90;99.90
11256;HTU21D;5685;52.384;13.420;2022-10-16T04:49:26;20.90;99.90
11256;HTU21D;5685;52.384;13.420;2022-10-16T04:52:28;20.90;99.90
11256;HTU21D;5685;52.384;13.420;2022-10-16T04:55:32;20.90;99.90
11256;HTU21D;5685;52.384;13.420;2022-10-16T04:58:34;20.90;99.90
11256;HTU21D;5685;52.384;13.420;2022-10-16T05:01:37;20.90;99.90
11256;HTU21D;5685;52.384;13.420;2022-10-16T05:04:39;20.90;99.90
11256;HTU21D;5685;52.384;13.420;2022-10-16T05:07:42;20.90;99.90
11256;HTU21D;5685;52.384;13.420;2022-10-16T05:10:44;20.90;99.90
11256;HTU21D;5685;52.384;13.420;2022-10-16T05:13:47;20.90;99.90
11256;HTU21D;5685;52.384;13.420;2022-10-16T05:16:50;20.90;99.90
11256;HTU21D;5685;52.384;13.420;2022-10-16T05:19:53;20.90;99.90
11256;HTU21D;5685;52.384;13.420;2022-10-16T05:22:55;20.90;99.90
11256;HTU21D;5685;52.384;13.420;2022-10-16T05:25:58;20.90;99.90
11256;HTU21D;5685;52.384;13.420;2022-10-16T05:29:00;20.90;99.90
11256;HTU21D;5685;52.384;13.420;2022-10-16T05:32:04;20.90;99.90
11256;HTU21D;5685;52.384;13.420;2022-10-16T05:35:07;20.90;99.90
11256;HTU21D;5685;52.384;13.420;2022-10-16T05:38:09;20.90;99.90
11256;HTU21D;5685;52.384;13.420;2022-10-16T05:41:11;20.90;99.90
11256;HTU21D;5685;52.384;13.420;2022-10-16T05:44:14;20.90;99.90
11256;HTU21D;5685;52.384;13.420;2022-10-16T05:47:17;20.90;99.90
11256;HTU21D;5685;52.384;13.420;2022-10-16T05:50:21;20.90;99.90
11256;HTU21D;5685;52.384;13.420;2022-10-16T05:53:23;20.90;99.90
11256;HTU21D;5685;52.384;13.420;2022-10-16T05:56:26;20.90;99.90
11256;HTU21D;5685;52.384;13.420;2022-10-16T05:59:29;20.90;99.90
11256;HTU21D;5685;52.384;13.420;2022-10-16T06:02:32;20.90;99.90
11256;HTU21D;5685;52.384;13.420;2022-10-16T06:05:34;20.90;99.90
11256;HTU21D;5685;52.384;13.420;2022-10-16T06:08:37;20.90;99.90
11256;HTU21D;5685;52.384;13.420;2022-10-16T06:11:39;21.00;99.90
11256;HTU21D;5685;52.384;13.420;2022-10-16T06:14:41;20.90;99.90
11256;HTU21D;5685;52.384;13.420;2022-10-16T06:17:45;20.90;99.90
11256;HTU21D;5685;52.384;13.420;2022-10-16T06:20:47;20.90;99.90
11256;HTU21D;5685;52.384;13.420;2022-10-16T06:23:49;20.90;99.90
11256;HTU21D;5685;52.384;13.420;2022-10-16T06:26:52;20.90;99.90
11256;HTU21D;5685;52.384;13.420;2022-10-16T06:29:54;20.90;99.90
11256;HTU21D;5685;52.384;13.420;2022-10-16T06:32:57;20.90;99.90
11256;HTU21D;5685;52.384;13.420;2022-10-16T06:36:00;20.80;99.90
11256;HTU21D;5685;52.384;13.420;2022-10-16T06:39:03;20.90;99.90
11256;HTU21D;5685;52.384;13.420;2022-10-16T06:42:07;20.80;99.90
11256;HTU21D;5685;52.384;13.420;2022-10-16T06:45:10;20.90;99.90
11256;HTU21D;5685;52.384;13.420;2022-10-16T06:48:14;20.80;99.90
11256;HTU21D;5685;52.384;13.420;2022-10-16T06:51:17;20.80;99.90
11256;HTU21D;5685;52.384;13.420;2022-10-16T06:54:20;20.80;99.90
11256;HTU21D;5685;52.384;13.420;2022-10-16T06:57:22;20.80;99.90
11256;HTU21D;5685;52.384;13.420;2022-10-16T07:00:24;20.80;99.90
11256;HTU21D;5685;52.384;13.420;2022-10-16T07:03:28;20.80;99.90
11256;HTU21D;5685;52.384;13.420;2022-10-16T07:06:32;20.80;99.90
11256;HTU21D;5685;52.384;13.420;2022-10-16T07:09:35;20.80;99.90
11256;HTU21D;5685;52.384;13.420;2022-10-16T07:12:37;20.80;99.90
11256;HTU21D;5685;52.384;13.420;2022-10-16T07:15:39;20.80;99.90
11256;HTU21D;5685;52.384;13.420;2022-10-16T07:18:43;20.80;99.90
11256;HTU21D;5685;52.384;13.420;2022-10-16T07:21:46;20.80;99.90
11256;HTU21D;5685;52.384;13.420;2022-10-16T07:24:49;20.80;99.90
11256;HTU21D;5685;52.384;13.420;2022-10-16T07:27:52;20.80;99.90
11256;HTU21D;5685;52.384;13.420;2022-10-16T07:31:00;20.80;99.90
11256;HTU21D;5685;52.384;13.420;2022-10-16T07:34:05;20.80;99.90
11256;HTU21D;5685;52.384;13.420;2022-10-16T07:37:07;20.80;99.90
11256;HTU21D;5685;52.384;13.420;2022-10-16T07:40:10;20.80;99.90
11256;HTU21D;5685;52.384;13.420;2022-10-16T07:43:12;20.80;99.90
11256;HTU21D;5685;52.384;13.420;2022-10-16T07:46:15;20.80;99.90
11256;HTU21D;5685;52.384;13.420;2022-10-16T07:49:19;20.80;99.90
11256;HTU21D;5685;52.384;13.420;2022-10-16T07:52:22;20.80;99.90
11256;HTU21D;5685;52.384;13.420;2022-10-16T07:55:24;20.80;99.90
11256;HTU21D;5685;52.384;13.420;2022-10-16T07:58:27;20.80;99.90
11256;HTU21D;5685;52.384;13.420;2022-10-16T08:01:29;20.80;99.90
11256;HTU21D;5685;52.384;13.420;2022-10-16T08:04:32;20.80;99.90
11256;HTU21D;5685;52.384;13.420;2022-10-16T08:07:35;20.80;99.90
11256;HTU21D;5685;52.384;13.420;2022-10-16T08:10:37;20.80;99.90
11256;HTU21D;5685;52.384;13.420;2022-10-16T08:13:39;20.80;99.90
11256;HTU21D;5685;52.384;13.420;2022-10-16T08:16:41;20.80;99.90
11256;HTU21D;5685;52.384;13.420;2022-10-16T08:19:48;20.80;99.90
11256;HTU21D;5685;52.384;13.420;2022-10-16T08:22:50;20.80;99.90
11256;HTU21D;5685;52.384;13.420;2022-10-16T08:25:52;20.80;99.90
11256;HTU21D;5685;52.384;13.420;2022-10-16T08:28:55;20.80;99.90
11256;HTU21D;5685;52.384;13.420;2022-10-16T08:31:57;20.80;99.90
11256;HTU21D;5685;52.384;13.420;2022-10-16T08:35:01;20.80;99.90
11256;HTU21D;5685;52.384;13.420;2022-10-16T08:38:04;20.80;99.90
11256;HTU21D;5685;52.384;13.420;2022-10-16T08:41:42;20.80;99.90
11256;HTU21D;5685;52.384;13.420;2022-10-16T08:45:21;20.80;99.90
11256;HTU21D;5685;52.384;13.420;2022-10-16T08:48:30;20.90;99.90
11256;HTU21D;5685;52.384;13.420;2022-10-16T08:51:38;20.90;99.90
11256;HTU21D;5685;52.384;13.420;2022-10-16T08:54:43;20.90;99.90
11256;HTU21D;5685;52.384;13.420;2022-10-16T08:57:47;20.90;99.90
11256;HTU21D;5685;52.384;13.420;2022-10-16T09:00:53;20.90;99.90
11256;HTU21D;5685;52.384;13.420;2022-10-16T09:04:20;20.90;99.90
11256;HTU21D;5685;52.384;13.420;2022-10-16T09:07:39;20.90;99.90
11256;HTU21D;5685;52.384;13.420;2022-10-16T09:10:49;20.90;99.90
11256;HTU21D;5685;52.384;13.420;2022-10-16T09:13:59;20.90;99.90
11256;HTU21D;5685;52.384;13.420;2022-10-16T09:17:19;20.90;99.90
11256;HTU21D;5685;52.384;13.420;2022-10-16T09:20:31;20.90;99.90
11256;HTU21D;5685;52.384;13.420;2022-10-16T09:23:38;20.90;99.90
11256;HTU21D;5685;52.384;13.420;2022-10-16T09:26:40;20.90;99.90
11256;HTU21D;5685;52.384;13.420;2022-10-16T09:29:43;20.90;99.90
11256;HTU21D;5685;52.384;13.420;2022-10-16T09:32:47;20.90;99.90
11256;HTU21D;5685;52.384;13.420;2022-10-16T09:35:51;20.90;99.90
11256;HTU21D;5685;52.384;13.420;2022-10-16T09:39:14;20.90;99.90
11256;HTU21D;5685;52.384;13.420;2022-10-16T09:42:17;20.90;99.90
11256;HTU21D;5685;52.384;13.420;2022-10-16T09:45:23;20.90;99.90
11256;HTU21D;5685;52.384;13.420;2022-10-16T09:48:28;20.90;99.90
11256;HTU21D;5685;52.384;13.420;2022-10-16T09:51:35;20.90;99.90
11256;HTU21D;5685;52.384;13.420;2022-10-16T09:54:49;21.00;99.90
11256;HTU21D;5685;52.384;13.420;2022-10-16T09:57:53;20.90;99.90
11256;HTU21D;5685;52.384;13.420;2022-10-16T10:00:56;21.00;99.90
11256;HTU21D;5685;52.384;13.420;2022-10-16T10:03:58;21.00;99.90
11256;HTU21D;5685;52.384;13.420;2022-10-16T10:07:03;20.90;99.90
11256;HTU21D;5685;52.384;13.420;2022-10-16T10:10:20;21.00;99.90
11256;HTU21D;5685;52.384;13.420;2022-10-16T10:13:25;21.00;99.90
11256;HTU21D;5685;52.384;13.420;2022-10-16T10:16:27;21.00;99.90
11256;HTU21D;5685;52.384;13.420;2022-10-16T10:19:29;21.00;99.90
11256;HTU21D;5685;52.384;13.420;2022-10-16T10:22:39;21.00;99.90
11256;HTU21D;5685;52.384;13.420;2022-10-16T10:25:50;21.00;99.90
11256;HTU21D;5685;52.384;13.420;2022-10-16T10:29:00;21.00;99.90
11256;HTU21D;5685;52.384;13.420;2022-10-16T10:32:15;21.00;99.90
11256;HTU21D;5685;52.384;13.420;2022-10-16T10:35:25;21.00;99.90
11256;HTU21D;5685;52.384;13.420;2022-10-16T10:38:38;21.00;99.90
11256;HTU21D;5685;52.384;13.420;2022-10-16T10:45:26;21.00;99.90
11256;HTU21D;5685;52.384;13.420;2022-10-16T10:48:52;21.00;99.90
11256;HTU21D;5685;52.384;13.420;2022-10-16T10:52:10;21.00;99.90
11256;HTU21D;5685;52.384;13.420;2022-10-16T10:55:26;21.00;99.90
11256;HTU21D;5685;52.384;13.420;2022-10-16T10:58:57;21.10;99.90
11256;HTU21D;5685;52.384;13.420;2022-10-16T11:02:13;21.10;99.90
11256;HTU21D;5685;52.384;13.420;2022-10-16T11:05:39;21.00;99.90
11256;HTU21D;5685;52.384;13.420;2022-10-16T11:08:46;21.00;99.90
11256;HTU21D;5685;52.384;13.420;2022-10-16T11:11:54;21.10;99.90
11256;HTU21D;5685;52.384;13.420;2022-10-16T11:15:04;21.10;99.90
11256;HTU21D;5685;52.384;13.420;2022-10-16T11:18:18;21.10;99.90
11256;HTU21D;5685;52.384;13.420;2022-10-16T11:21:23;21.10;99.90
11256;HTU21D;5685;52.384;13.420;2022-10-16T11:24:35;21.10;99.90
11256;HTU21D;5685;52.384;13.420;2022-10-16T11:27:47;21.10;99.90
11256;HTU21D;5685;52.384;13.420;2022-10-16T11:30:57;21.10;99.90
11256;HTU21D;5685;52.384;13.420;2022-10-16T11:34:06;21.10;99.90
11256;HTU21D;5685;52.384;13.420;2022-10-16T11:37:19;21.10;99.90
11256;HTU21D;5685;52.384;13.420;2022-10-16T11:40:25;21.10;99.90
11256;HTU21D;5685;52.384;13.420;2022-10-16T11:43:35;21.10;99.90
11256;HTU21D;5685;52.384;13.420;2022-10-16T11:46:44;21.10;99.90
11256;HTU21D;5685;52.384;13.420;2022-10-16T11:49:53;21.10;99.90
11256;HTU21D;5685;52.384;13.420;2022-10-16T11:53:04;21.10;99.90
11256;HTU21D;5685;52.384;13.420;2022-10-16T11:56:21;21.10;99.90
11256;HTU21D;5685;52.384;13.420;2022-10-16T11:59:28;21.20;99.90
11256;HTU21D;5685;52.384;13.420;2022-10-16T12:02:40;21.20;99.90
11256;HTU21D;5685;52.384;13.420;2022-10-16T12:05:58;21.20;99.90
11256;HTU21D;5685;52.384;13.420;2022-10-16T12:09:15;21.20;99.90
11256;HTU21D;5685;52.384;13.420;2022-10-16T12:12:26;21.20;99.90
11256;HTU21D;5685;52.384;13.420;2022-10-16T12:15:32;21.20;99.90
11256;HTU21D;5685;52.384;13.420;2022-10-16T12:18:37;21.20;99.90
11256;HTU21D;5685;52.384;13.420;2022-10-16T12:21:40;21.20;99.90
11256;HTU21D;5685;52.384;13.420;2022-10-16T12:24:43;21.30;99.90
11256;HTU21D;5685;52.384;13.420;2022-10-16T12:27:45;21.30;99.90
11256;HTU21D;5685;52.384;13.420;2022-10-16T12:30:57;21.30;99.90
11256;HTU21D;5685;52.384;13.420;2022-10-16T12:34:02;21.30;99.90
11256;HTU21D;5685;52.384;13.420;2022-10-16T12:37:15;21.20;99.90
11256;HTU21D;5685;52.384;13.420;2022-10-16T12:40:27;21.30;99.90
11256;HTU21D;5685;52.384;13.420;2022-10-16T12:43:37;21.30;99.90
11256;HTU21D;5685;52.384;13.420;2022-10-16T12:46:42;21.30;99.90
11256;HTU21D;5685;52.384;13.420;2022-10-16T12:49:51;21.30;99.90
11256;HTU21D;5685;52.384;13.420;2022-10-16T12:52:54;21.30;99.90
11256;HTU21D;5685;52.384;13.420;2022-10-16T12:56:03;21.30;99.90
11256;HTU21D;5685;52.384;13.420;2022-10-16T12:59:17;21.40;99.90
11256;HTU21D;5685;52.384;13.420;2022-10-16T13:06:17;21.40;99.90
11256;HTU21D;5685;52.384;13.420;2022-10-16T13:09:35;21.30;99.90
11256;HTU21D;5685;52.384;13.420;2022-10-16T13:13:09;21.40;99.90
11256;HTU21D;5685;52.384;13.420;2022-10-16T13:16:22;21.40;99.90
11256;HTU21D;5685;52.384;13.420;2022-10-16T13:19:38;21.40;99.90
11256;HTU21D;5685;52.384;13.420;2022-10-16T13:22:51;21.40;99.90
11256;HTU21D;5685;52.384;13.420;2022-10-16T13:26:12;21.40;99.90
11256;HTU21D;5685;52.384;13.420;2022-10-16T13:29:19;21.40;99.90
11256;HTU21D;5685;52.384;13.420;2022-10-16T13:32:22;21.40;99.90
11256;HTU21D;5685;52.384;13.420;2022-10-16T13:35:27;21.40;99.90
11256;HTU21D;5685;52.384;13.420;2022-10-16T13:38:33;21.40;99.90
11256;HTU21D;5685;52.384;13.420;2022-10-16T13:41:36;21.40;99.90
11256;HTU21D;5685;52.384;13.420;2022-10-16T13:44:41;21.40;99.90
11256;HTU21D;5685;52.384;13.420;2022-10-16T13:47:44;21.40;99.90
11256;HTU21D;5685;52.384;13.420;2022-10-16T13:50:58;21.50;99.90
11256;HTU21D;5685;52.384;13.420;2022-10-16T13:54:09;21.50;99.90
11256;HTU21D;5685;52.384;13.420;2022-10-16T13:57:13;21.50;99.90
11256;HTU21D;5685;52.384;13.420;2022-10-16T14:00:21;21.50;99.90
11256;HTU21D;5685;52.384;13.420;2022-10-16T14:03:25;21.50;99.90
11256;HTU21D;5685;52.384;13.420;2022-10-16T14:06:27;21.50;99.90
11256;HTU21D;5685;52.384;13.420;2022-10-16T14:09:31;21.50;99.90
11256;HTU21D;5685;52.384;13.420;2022-10-16T14:12:34;21.50;99.90
11256;HTU21D;5685;52.384;13.420;2022-10-16T14:15:37;21.50;99.90
11256;HTU21D;5685;52.384;13.420;2022-10-16T14:18:39;21.60;99.90
11256;HTU21D;5685;52.384;13.420;2022-10-16T14:21:41;21.60;99.90
11256;HTU21D;5685;52.384;13.420;2022-10-16T14:24:45;21.60;99.90
11256;HTU21D;5685;52.384;13.420;2022-10-16T14:27:57;21.60;99.90
11256;HTU21D;5685;52.384;13.420;2022-10-16T14:31:02;21.60;99.90
11256;HTU21D;5685;52.384;13.420;2022-10-16T14:34:25;21.60;99.90
11256;HTU21D;5685;52.384;13.420;2022-10-16T14:37:29;21.60;99.90
11256;HTU21D;5685;52.384;13.420;2022-10-16T14:40:35;21.60;99.90
11256;HTU21D;5685;52.384;13.420;2022-10-16T14:43:40;21.60;99.90
11256;HTU21D;5685;52.384;13.420;2022-10-16T14:46:43;21.60;99.90
11256;HTU21D;5685;52.384;13.420;2022-10-16T14:49:46;21.70;99.90
11256;HTU21D;5685;52.384;13.420;2022-10-16T14:52:48;21.60;99.90
11256;HTU21D;5685;52.384;13.420;2022-10-16T14:55:51;21.70;99.90
11256;HTU21D;5685;52.384;13.420;2022-10-16T14:58:53;21.70;99.90
11256;HTU21D;5685;52.384;13.420;2022-10-16T15:01:57;21.70;99.90
11256;HTU21D;5685;52.384;13.420;2022-10-16T15:05:07;21.70;99.90
11256;HTU21D;5685;52.384;13.420;2022-10-16T15:08:13;21.70;99.90
11256;HTU21D;5685;52.384;13.420;2022-10-16T15:11:19;21.70;99.90
11256;HTU21D;5685;52.384;13.420;2022-10-16T15:14:21;21.70;99.90
11256;HTU21D;5685;52.384;13.420;2022-10-16T15:17:23;21.70;99.90
11256;HTU21D;5685;52.384;13.420;2022-10-16T15:20:26;21.70;99.90
11256;HTU21D;5685;52.384;13.420;2022-10-16T15:23:28;21.70;99.90
11256;HTU21D;5685;52.384;13.420;2022-10-16T15:26:31;21.70;99.90
11256;HTU21D;5685;52.384;13.420;2022-10-16T15:29:33;21.70;99.90
11256;HTU21D;5685;52.384;13.420;2022-10-16T15:32:36;21.70;99.90
11256;HTU21D;5685;52.384;13.420;2022-10-16T15:35:38;21.70;99.90
11256;HTU21D;5685;52.384;13.420;2022-10-16T15:38:40;21.70;99.90
11256;HTU21D;5685;52.384;13.420;2022-10-16T15:41:45;21.70;99.90
11256;HTU21D;5685;52.384;13.420;2022-10-16T15:44:51;21.70;99.90
11256;HTU21D;5685;52.384;13.420;2022-10-16T15:47:53;21.70;99.90
11256;HTU21D;5685;52.384;13.420;2022-10-16T15:50:55;21.70;99.90
11256;HTU21D;5685;52.384;13.420;2022-10-16T15:53:58;21.70;99.90
11256;HTU21D;5685;52.384;13.420;2022-10-16T15:57:03;21.80;99.90
11256;HTU21D;5685;52.384;13.420;2022-10-16T16:00:06;21.70;99.90
11256;HTU21D;5685;52.384;13.420;2022-10-16T16:03:10;21.80;99.90
11256;HTU21D;5685;52.384;13.420;2022-10-16T16:06:13;21.70;99.90
11256;HTU21D;5685;52.384;13.420;2022-10-16T16:09:16;21.70;99.90
11256;HTU21D;5685;52.384;13.420;2022-10-16T16:12:19;21.80;99.90
11256;HTU21D;5685;52.384;13.420;2022-10-16T16:15:22;21.80;99.90
11256;HTU21D;5685;52.384;13.420;2022-10-16T16:18:25;21.80;99.90
11256;HTU21D;5685;52.384;13.420;2022-10-16T16:21:27;21.80;99.90
11256;HTU21D;5685;52.384;13.420;2022-10-16T16:24:29;21.80;99.90
11256;HTU21D;5685;52.384;13.420;2022-10-16T16:27:33;21.80;99.90
11256;HTU21D;5685;52.384;13.420;2022-10-16T16:30:35;21.80;99.90
11256;HTU21D;5685;52.384;13.420;2022-10-16T16:33:37;21.80;99.90
11256;HTU21D;5685;52.384;13.420;2022-10-16T16:36:39;21.80;99.90
11256;HTU21D;5685;52.384;13.420;2022-10-16T16:39:41;21.80;99.90
11256;HTU21D;5685;52.384;13.420;2022-10-16T16:42:47;21.80;99.90
11256;HTU21D;5685;52.384;13.420;2022-10-16T16:45:50;21.80;99.90
11256;HTU21D;5685;52.384;13.420;2022-10-16T16:48:52;21.80;99.90
11256;HTU21D;5685;52.384;13.420;2022-10-16T16:51:55;21.80;99.90
11256;HTU21D;5685;52.384;13.420;2022-10-16T16:54:58;21.80;99.90
11256;HTU21D;5685;52.384;13.420;2022-10-16T16:58:01;21.80;99.90
11256;HTU21D;5685;52.384;13.420;2022-10-16T17:01:05;21.80;99.90
11256;HTU21D;5685;52.384;13.420;2022-10-16T17:04:08;21.80;99.90
11256;HTU21D;5685;52.384;13.420;2022-10-16T17:07:10;21.80;99.90
11256;HTU21D;5685;52.384;13.420;2022-10-16T17:10:13;21.80;99.90
11256;HTU21D;5685;52.384;13.420;2022-10-16T17:13:16;21.80;99.90
11256;HTU21D;5685;52.384;13.420;2022-10-16T17:16:18;21.80;99.90
11256;HTU21D;5685;52.384;13.420;2022-10-16T17:19:21;21.80;99.90
11256;HTU21D;5685;52.384;13.420;2022-10-16T17:22:23;21.80;99.90
11256;HTU21D;5685;52.384;13.420;2022-10-16T17:25:25;21.80;99.90
11256;HTU21D;5685;52.384;13.420;2022-10-16T17:28:29;21.80;99.90
11256;HTU21D;5685;52.384;13.420;2022-10-16T17:31:33;21.80;99.90
11256;HTU21D;5685;52.384;13.420;2022-10-16T17:34:36;21.80;99.90
11256;HTU21D;5685;52.384;13.420;2022-10-16T17:37:38;21.80;99.90
11256;HTU21D;5685;52.384;13.420;2022-10-16T17:40:41;21.80;99.90
11256;HTU21D;5685;52.384;13.420;2022-10-16T17:43:45;21.80;99.90
11256;HTU21D;5685;52.384;13.420;2022-10-16T17:46:50;21.80;99.90
11256;HTU21D;5685;52.384;13.420;2022-10-16T17:49:53;21.80;99.90
11256;HTU21D;5685;52.384;13.420;2022-10-16T17:52:56;21.90;99.90
11256;HTU21D;5685;52.384;13.420;2022-10-16T17:56:02;21.80;99.90
11256;HTU21D;5685;52.384;13.420;2022-10-16T17:59:06;21.90;99.90
11256;HTU21D;5685;52.384;13.420;2022-10-16T18:02:09;21.90;99.90
11256;HTU21D;5685;52.384;13.420;2022-10-16T18:05:11;21.90;99.90
11256;HTU21D;5685;52.384;13.420;2022-10-16T18:08:13;21.90;99.90
11256;HTU21D;5685;52.384;13.420;2022-10-16T18:11:15;21.90;99.90
11256;HTU21D;5685;52.384;13.420;2022-10-16T18:14:19;21.90;99.90
11256;HTU21D;5685;52.384;13.420;2022-10-16T18:17:21;21.90;99.90
11256;HTU21D;5685;52.384;13.420;2022-10-16T18:20:23;21.80;99.90
11256;HTU21D;5685;52.384;13.420;2022-10-16T18:23:27;21.90;99.90
11256;HTU21D;5685;52.384;13.420;2022-10-16T18:26:29;21.80;99.90
11256;HTU21D;5685;52.384;13.420;2022-10-16T18:29:34;21.90;99.90
11256;HTU21D;5685;52.384;13.420;2022-10-16T18:32:37;21.80;99.90
11256;HTU21D;5685;52.384;13.420;2022-10-16T18:35:39;21.90;99.90
11256;HTU21D;5685;52.384;13.420;2022-10-16T18:38:42;21.90;99.90
11256;HTU21D;5685;52.384;13.420;2022-10-16T18:41:44;21.90;99.90
11256;HTU21D;5685;52.384;13.420;2022-10-16T18:44:48;21.90;99.90
11256;HTU21D;5685;52.384;13.420;2022-10-16T18:47:50;21.90;99.90
11256;HTU21D;5685;52.384;13.420;2022-10-16T18:50:53;21.90;99.90
11256;HTU21D;5685;52.384;13.420;2022-10-16T18:53:57;21.90;99.90
11256;HTU21D;5685;52.384;13.420;2022-10-16T18:57:00;21.90;99.90
11256;HTU21D;5685;52.384;13.420;2022-10-16T19:00:05;21.90;99.90
11256;HTU21D;5685;52.384;13.420;2022-10-16T19:03:08;21.90;99.90
11256;HTU21D;5685;52.384;13.420;2022-10-16T19:06:12;21.90;99.90
11256;HTU21D;5685;52.384;13.420;2022-10-16T19:09:16;21.90;99.90
11256;HTU21D;5685;52.384;13.420;2022-10-16T19:12:20;21.90;99.90
11256;HTU21D;5685;52.384;13.420;2022-10-16T19:15:23;21.90;99.90
11256;HTU21D;5685;52.384;13.420;2022-10-16T19:18:26;21.90;99.90